sensor_id;sensor_type;location;lat;lon;timestamp;pressure;altitude;pressure_sealevel;temperature;humidity
34297;BME280;20564;42.902;25.336;2022-10-15T00:01:28;97560.81;;;10.23;100.00
34297;BME280;20564;42.902;25.336;2022-10-15T00:03:55;97563.72;;;10.20;100.00
34297;BME280;20564;42.902;25.336;2022-10-15T00:06:23;97554.94;;;10.10;100.00
34297;BME280;20564;42.902;25.336;2022-10-15T00:08:50;97557.22;;;10.03;100.00
34297;BME280;20564;42.902;25.336;2022-10-15T00:11:20;97564.88;;;10.06;100.00
34297;BME280;20564;42.902;25.336;2022-10-15T00:13:48;97568.00;;;10.00;100.00
34297;BME280;20564;42.902;25.336;2022-10-15T00:16:19;97566.44;;;9.98;100.00
34297;BME280;20564;42.902;25.336;2022-10-15T00:18:46;97568.13;;;9.99;100.00
34297;BME280;20564;42.902;25.336;2022-10-15T00:21:15;97570.53;;;9.90;100.00
34297;BME280;20564;42.902;25.336;2022-10-15T00:23:45;97560.66;;;9.83;100.00
34297;BME280;20564;42.902;25.336;2022-10-15T00:26:16;97560.34;;;9.76;100.00
34297;BME280;20564;42.902;25.336;2022-10-15T00:28:44;97561.53;;;9.72;100.00
34297;BME280;20564;42.902;25.336;2022-10-15T00:31:13;97560.59;;;9.73;100.00
34297;BME280;20564;42.902;25.336;2022-10-15T00:33:41;97556.28;;;9.72;100.00
34297;BME280;20564;42.902;25.336;2022-10-15T00:36:15;97556.56;;;9.69;100.00
34297;BME280;20564;42.902;25.336;2022-10-15T00:38:43;97555.13;;;9.65;100.00
34297;BME280;20564;42.902;25.336;2022-10-15T00:41:18;97560.91;;;9.59;100.00
34297;BME280;20564;42.902;25.336;2022-10-15T00:43:49;97556.97;;;9.53;100.00
34297;BME280;20564;42.902;25.336;2022-10-15T00:48:50;97571.31;;;9.49;100.00
34297;BME280;20564;42.902;25.336;2022-10-15T00:51:20;97562.97;;;9.44;100.00
34297;BME280;20564;42.902;25.336;2022-10-15T00:53:50;97563.47;;;9.38;100.00
34297;BME280;20564;42.902;25.336;2022-10-15T00:56:19;97561.66;;;9.38;100.00
34297;BME280;20564;42.902;25.336;2022-10-15T00:58:47;97563.22;;;9.41;100.00
34297;BME280;20564;42.902;25.336;2022-10-15T01:01:16;97561.66;;;9.38;100.00
34297;BME280;20564;42.902;25.336;2022-10-15T01:03:44;97555.97;;;9.33;100.00
34297;BME280;20564;42.902;25.336;2022-10-15T01:06:11;97553.31;;;9.33;100.00
34297;BME280;20564;42.902;25.336;2022-10-15T01:08:38;97561.91;;;9.35;100.00
34297;BME280;20564;42.902;25.336;2022-10-15T01:14:21;97557.16;;;9.29;100.00
34297;BME280;20564;42.902;25.336;2022-10-15T01:19:56;97566.50;;;9.22;100.00
34297;BME280;20564;42.902;25.336;2022-10-15T01:26:15;97563.63;;;9.25;100.00
34297;BME280;20564;42.902;25.336;2022-10-15T01:34:39;97568.97;;;9.24;100.00
34297;BME280;20564;42.902;25.336;2022-10-15T01:36:57;97567.19;;;9.24;100.00
34297;BME280;20564;42.902;25.336;2022-10-15T01:39:38;97557.19;;;9.18;100.00
34297;BME280;20564;42.902;25.336;2022-10-15T01:42:14;97566.84;;;9.17;100.00
34297;BME280;20564;42.902;25.336;2022-10-15T01:44:50;97568.28;;;9.22;100.00
34297;BME280;20564;42.902;25.336;2022-10-15T01:47:35;97571.84;;;9.21;100.00
34297;BME280;20564;42.902;25.336;2022-10-15T01:50:05;97572.94;;;9.18;100.00
34297;BME280;20564;42.902;25.336;2022-10-15T01:52:36;97569.59;;;9.16;100.00
34297;BME280;20564;42.902;25.336;2022-10-15T01:55:11;97576.25;;;9.20;100.00
34297;BME280;20564;42.902;25.336;2022-10-15T01:57:41;97562.44;;;9.18;100.00
34297;BME280;20564;42.902;25.336;2022-10-15T02:00:10;97576.03;;;9.23;100.00
34297;BME280;20564;42.902;25.336;2022-10-15T02:02:37;97577.22;;;9.30;100.00
34297;BME280;20564;42.902;25.336;2022-10-15T02:05:08;97580.81;;;9.29;100.00
34297;BME280;20564;42.902;25.336;2022-10-15T02:07:46;97584.38;;;9.28;100.00
34297;BME280;20564;42.902;25.336;2022-10-15T02:10:47;97576.63;;;9.27;100.00
34297;BME280;20564;42.902;25.336;2022-10-15T02:16:26;97578.88;;;9.31;100.00
34297;BME280;20564;42.902;25.336;2022-10-15T02:18:57;97573.75;;;9.30;100.00
34297;BME280;20564;42.902;25.336;2022-10-15T02:21:41;97577.69;;;9.24;100.00
34297;BME280;20564;42.902;25.336;2022-10-15T02:24:19;97572.44;;;9.24;100.00
34297;BME280;20564;42.902;25.336;2022-10-15T02:26:51;97572.44;;;9.24;100.00
34297;BME280;20564;42.902;25.336;2022-10-15T02:29:22;97566.97;;;9.16;100.00
34297;BME280;20564;42.902;25.336;2022-10-15T02:31:54;97575.31;;;9.10;100.00
34297;BME280;20564;42.902;25.336;2022-10-15T02:34:28;97576.16;;;9.10;100.00
34297;BME280;20564;42.902;25.336;2022-10-15T02:36:57;97578.91;;;9.09;100.00
34297;BME280;20564;42.902;25.336;2022-10-15T02:39:26;97568.16;;;9.12;100.00
34297;BME280;20564;42.902;25.336;2022-10-15T02:41:54;97569.13;;;9.11;100.00
34297;BME280;20564;42.902;25.336;2022-10-15T02:44:22;97572.22;;;9.05;100.00
34297;BME280;20564;42.902;25.336;2022-10-15T02:46:50;97567.72;;;9.07;100.00
34297;BME280;20564;42.902;25.336;2022-10-15T02:49:17;97569.75;;;9.03;100.00
34297;BME280;20564;42.902;25.336;2022-10-15T02:51:45;97561.72;;;9.05;100.00
34297;BME280;20564;42.902;25.336;2022-10-15T02:54:12;97566.97;;;9.05;100.00
34297;BME280;20564;42.902;25.336;2022-10-15T02:56:39;97560.06;;;9.04;100.00
34297;BME280;20564;42.902;25.336;2022-10-15T02:59:06;97570.56;;;9.04;100.00
34297;BME280;20564;42.902;25.336;2022-10-15T03:01:33;97573.06;;;9.05;100.00
34297;BME280;20564;42.902;25.336;2022-10-15T03:04:01;97569.25;;;9.09;100.00
34297;BME280;20564;42.902;25.336;2022-10-15T03:06:29;97567.44;;;9.10;100.00
34297;BME280;20564;42.902;25.336;2022-10-15T03:08:56;97567.34;;;9.11;100.00
34297;BME280;20564;42.902;25.336;2022-10-15T03:11:23;97571.75;;;9.11;100.00
34297;BME280;20564;42.902;25.336;2022-10-15T03:13:50;97565.66;;;9.10;100.00
34297;BME280;20564;42.902;25.336;2022-10-15T03:16:17;97565.09;;;9.07;100.00
34297;BME280;20564;42.902;25.336;2022-10-15T03:18:45;97570.06;;;9.10;100.00
34297;BME280;20564;42.902;25.336;2022-10-15T03:21:12;97576.50;;;9.17;100.00
34297;BME280;20564;42.902;25.336;2022-10-15T03:23:39;97581.31;;;9.12;100.00
34297;BME280;20564;42.902;25.336;2022-10-15T03:26:07;97580.34;;;9.02;100.00
34297;BME280;20564;42.902;25.336;2022-10-15T03:28:34;97578.22;;;9.07;100.00
34297;BME280;20564;42.902;25.336;2022-10-15T03:31:01;97580.84;;;9.07;100.00
34297;BME280;20564;42.902;25.336;2022-10-15T03:33:29;97584.53;;;8.93;100.00
34297;BME280;20564;42.902;25.336;2022-10-15T03:35:56;97585.38;;;8.93;100.00
34297;BME280;20564;42.902;25.336;2022-10-15T03:38:23;97584.88;;;8.88;100.00
34297;BME280;20564;42.902;25.336;2022-10-15T03:40:50;97594.91;;;8.83;100.00
34297;BME280;20564;42.902;25.336;2022-10-15T03:43:18;97578.22;;;8.84;100.00
34297;BME280;20564;42.902;25.336;2022-10-15T03:45:44;97585.16;;;8.85;100.00
34297;BME280;20564;42.902;25.336;2022-10-15T03:48:12;97579.41;;;8.80;100.00
34297;BME280;20564;42.902;25.336;2022-10-15T03:50:39;97589.31;;;8.77;100.00
34297;BME280;20564;42.902;25.336;2022-10-15T03:53:06;97592.44;;;8.71;100.00
34297;BME280;20564;42.902;25.336;2022-10-15T03:55:33;97595.38;;;8.77;100.00
34297;BME280;20564;42.902;25.336;2022-10-15T03:58:01;97595.28;;;8.67;100.00
34297;BME280;20564;42.902;25.336;2022-10-15T04:00:28;97596.56;;;8.62;100.00
34297;BME280;20564;42.902;25.336;2022-10-15T04:02:55;97597.75;;;8.58;100.00
34297;BME280;20564;42.902;25.336;2022-10-15T04:05:24;97602.53;;;8.53;100.00
34297;BME280;20564;42.902;25.336;2022-10-15T04:07:51;97606.09;;;8.52;100.00
34297;BME280;20564;42.902;25.336;2022-10-15T04:10:18;97608.00;;;8.50;100.00
34297;BME280;20564;42.902;25.336;2022-10-15T04:12:46;97597.53;;;8.50;100.00
34297;BME280;20564;42.902;25.336;2022-10-15T04:15:13;97599.63;;;8.44;100.00
34297;BME280;20564;42.902;25.336;2022-10-15T04:17:40;97603.72;;;8.37;100.00
34297;BME280;20564;42.902;25.336;2022-10-15T04:20:08;97590.06;;;8.32;100.00
34297;BME280;20564;42.902;25.336;2022-10-15T04:22:36;97590.50;;;8.26;100.00
34297;BME280;20564;42.902;25.336;2022-10-15T04:25:04;97595.88;;;8.25;100.00
34297;BME280;20564;42.902;25.336;2022-10-15T04:27:31;97598.75;;;8.21;100.00
34297;BME280;20564;42.902;25.336;2022-10-15T04:29:58;97601.34;;;8.10;100.00
34297;BME280;20564;42.902;25.336;2022-10-15T04:32:25;97601.47;;;8.09;100.00
34297;BME280;20564;42.902;25.336;2022-10-15T04:34:52;97595.69;;;8.04;100.00
34297;BME280;20564;42.902;25.336;2022-10-15T04:37:20;97596.19;;;7.97;100.00
34297;BME280;20564;42.902;25.336;2022-10-15T04:39:47;97591.66;;;8.00;100.00
34297;BME280;20564;42.902;25.336;2022-10-15T04:42:14;97600.13;;;8.03;100.00
34297;BME280;20564;42.902;25.336;2022-10-15T04:44:42;97605.25;;;8.05;100.00
34297;BME280;20564;42.902;25.336;2022-10-15T04:47:09;97599.28;;;8.03;100.00
34297;BME280;20564;42.902;25.336;2022-10-15T04:49:36;97604.19;;;8.07;100.00
34297;BME280;20564;42.902;25.336;2022-10-15T04:52:03;97607.88;;;8.05;100.00
34297;BME280;20564;42.902;25.336;2022-10-15T04:54:30;97616.69;;;8.04;100.00
34297;BME280;20564;42.902;25.336;2022-10-15T04:56:57;97613.13;;;8.05;100.00
34297;BME280;20564;42.902;25.336;2022-10-15T04:59:25;97614.56;;;8.09;100.00
34297;BME280;20564;42.902;25.336;2022-10-15T05:01:52;97618.63;;;8.13;100.00
34297;BME280;20564;42.902;25.336;2022-10-15T05:04:19;97619.34;;;8.15;100.00
34297;BME280;20564;42.902;25.336;2022-10-15T05:06:46;97619.59;;;8.12;100.00
34297;BME280;20564;42.902;25.336;2022-10-15T05:09:14;97616.44;;;8.07;100.00
34297;BME280;20564;42.902;25.336;2022-10-15T05:11:41;97629.13;;;8.13;100.00
34297;BME280;20564;42.902;25.336;2022-10-15T05:14:08;97628.88;;;8.16;100.00
34297;BME280;20564;42.902;25.336;2022-10-15T05:16:35;97633.66;;;8.22;100.00
34297;BME280;20564;42.902;25.336;2022-10-15T05:19:09;97637.25;;;8.21;100.00
34297;BME280;20564;42.902;25.336;2022-10-15T05:21:37;97629.50;;;8.19;100.00
34297;BME280;20564;42.902;25.336;2022-10-15T05:24:04;97641.53;;;8.22;100.00
34297;BME280;20564;42.902;25.336;2022-10-15T05:26:39;97636.28;;;8.22;100.00
34297;BME280;20564;42.902;25.336;2022-10-15T05:29:11;97637.97;;;8.23;100.00
34297;BME280;20564;42.902;25.336;2022-10-15T05:31:41;97642.75;;;8.29;100.00
34297;BME280;20564;42.902;25.336;2022-10-15T05:34:09;97646.94;;;8.32;100.00
34297;BME280;20564;42.902;25.336;2022-10-15T05:36:36;97647.66;;;8.34;100.00
34297;BME280;20564;42.902;25.336;2022-10-15T05:39:05;97649.75;;;8.41;100.00
34297;BME280;20564;42.902;25.336;2022-10-15T05:41:36;97655.69;;;8.43;100.00
34297;BME280;20564;42.902;25.336;2022-10-15T05:44:03;97645.56;;;8.39;100.00
34297;BME280;20564;42.902;25.336;2022-10-15T05:46:31;97658.66;;;8.39;100.00
34297;BME280;20564;42.902;25.336;2022-10-15T05:48:58;97662.84;;;8.41;100.00
34297;BME280;20564;42.902;25.336;2022-10-15T05:51:26;97668.94;;;8.42;100.00
34297;BME280;20564;42.902;25.336;2022-10-15T05:53:54;97668.13;;;8.53;100.00
34297;BME280;20564;42.902;25.336;2022-10-15T05:56:22;97668.13;;;8.53;100.00
34297;BME280;20564;42.902;25.336;2022-10-15T05:58:50;97670.53;;;8.56;100.00
34297;BME280;20564;42.902;25.336;2022-10-15T06:01:18;97672.22;;;8.68;100.00
34297;BME280;20564;42.902;25.336;2022-10-15T06:03:45;97667.66;;;8.70;100.00
34297;BME280;20564;42.902;25.336;2022-10-15T06:06:18;97674.13;;;8.77;100.00
34297;BME280;20564;42.902;25.336;2022-10-15T06:08:46;97663.59;;;8.66;100.00
34297;BME280;20564;42.902;25.336;2022-10-15T06:11:14;97685.13;;;8.82;100.00
34297;BME280;20564;42.902;25.336;2022-10-15T06:13:41;97685.50;;;9.00;100.00
34297;BME280;20564;42.902;25.336;2022-10-15T06:16:09;97681.56;;;8.94;100.00
34297;BME280;20564;42.902;25.336;2022-10-15T06:18:37;97696.84;;;9.12;100.00
34297;BME280;20564;42.902;25.336;2022-10-15T06:21:06;97686.34;;;9.23;100.00
34297;BME280;20564;42.902;25.336;2022-10-15T06:23:33;97688.97;;;9.34;100.00
34297;BME280;20564;42.902;25.336;2022-10-15T06:26:06;97699.34;;;9.47;100.00
34297;BME280;20564;42.902;25.336;2022-10-15T06:28:35;97697.78;;;9.56;100.00
34297;BME280;20564;42.902;25.336;2022-10-15T06:31:04;97704.69;;;9.68;100.00
34297;BME280;20564;42.902;25.336;2022-10-15T06:33:32;97696.09;;;9.66;100.00
34297;BME280;20564;42.902;25.336;2022-10-15T06:36:03;97707.19;;;9.81;100.00
34297;BME280;20564;42.902;25.336;2022-10-15T06:38:31;97709.44;;;9.85;100.00
34297;BME280;20564;42.902;25.336;2022-10-15T06:40:59;97715.88;;;9.93;100.00
34297;BME280;20564;42.902;25.336;2022-10-15T06:43:26;97715.66;;;9.96;100.00
34297;BME280;20564;42.902;25.336;2022-10-15T06:45:58;97718.34;;;10.05;100.00
34297;BME280;20564;42.902;25.336;2022-10-15T06:48:25;97723.31;;;10.20;100.00
34297;BME280;20564;42.902;25.336;2022-10-15T06:50:53;97715.81;;;10.26;100.00
34297;BME280;20564;42.902;25.336;2022-10-15T06:53:20;97707.75;;;10.39;100.00
34297;BME280;20564;42.902;25.336;2022-10-15T06:55:48;97717.84;;;10.55;100.00
34297;BME280;20564;42.902;25.336;2022-10-15T06:58:15;97710.28;;;10.61;100.00
34297;BME280;20564;42.902;25.336;2022-10-15T07:00:42;97709.13;;;10.75;100.00
34297;BME280;20564;42.902;25.336;2022-10-15T07:03:09;97702.31;;;10.94;100.00
34297;BME280;20564;42.902;25.336;2022-10-15T07:05:39;97701.03;;;11.19;100.00
34297;BME280;20564;42.902;25.336;2022-10-15T07:08:07;97707.50;;;11.35;100.00
34297;BME280;20564;42.902;25.336;2022-10-15T07:10:34;97699.19;;;11.40;100.00
34297;BME280;20564;42.902;25.336;2022-10-15T07:13:01;97705.03;;;11.44;100.00
34297;BME280;20564;42.902;25.336;2022-10-15T07:15:28;97699.25;;;11.50;100.00
34297;BME280;20564;42.902;25.336;2022-10-15T07:17:56;97702.59;;;11.52;100.00
34297;BME280;20564;42.902;25.336;2022-10-15T07:20:28;97716.72;;;11.51;100.00
34297;BME280;20564;42.902;25.336;2022-10-15T07:23:00;97720.06;;;11.53;100.00
34297;BME280;20564;42.902;25.336;2022-10-15T07:25:27;97718.09;;;11.45;100.00
34297;BME280;20564;42.902;25.336;2022-10-15T07:27:56;97728.09;;;11.51;100.00
34297;BME280;20564;42.902;25.336;2022-10-15T07:30:24;97713.41;;;11.49;100.00
34297;BME280;20564;42.902;25.336;2022-10-15T07:32:56;97713.13;;;11.52;100.00
34297;BME280;20564;42.902;25.336;2022-10-15T07:35:26;97716.47;;;11.54;100.00
34297;BME280;20564;42.902;25.336;2022-10-15T07:37:54;97721.47;;;11.57;100.00
34297;BME280;20564;42.902;25.336;2022-10-15T07:40:21;97710.41;;;11.63;100.00
34297;BME280;20564;42.902;25.336;2022-10-15T07:42:55;97711.78;;;11.67;100.00
34297;BME280;20564;42.902;25.336;2022-10-15T07:45:23;97718.47;;;11.71;100.00
34297;BME280;20564;42.902;25.336;2022-10-15T07:47:51;97709.88;;;11.79;100.00
34297;BME280;20564;42.902;25.336;2022-10-15T07:50:19;97713.25;;;11.91;100.00
34297;BME280;20564;42.902;25.336;2022-10-15T07:52:46;97711.75;;;11.98;98.60
34297;BME280;20564;42.902;25.336;2022-10-15T07:55:13;97709.00;;;11.99;96.89
34297;BME280;20564;42.902;25.336;2022-10-15T07:57:40;97703.00;;;11.97;96.71
34297;BME280;20564;42.902;25.336;2022-10-15T08:00:08;97711.63;;;12.09;97.27
34297;BME280;20564;42.902;25.336;2022-10-15T08:02:36;97712.06;;;12.14;98.96
34297;BME280;20564;42.902;25.336;2022-10-15T08:05:03;97701.09;;;12.19;98.95
34297;BME280;20564;42.902;25.336;2022-10-15T08:07:30;97699.16;;;12.30;98.12
34297;BME280;20564;42.902;25.336;2022-10-15T08:09:57;97710.69;;;12.49;97.03
34297;BME280;20564;42.902;25.336;2022-10-15T08:12:24;97711.41;;;12.51;94.78
34297;BME280;20564;42.902;25.336;2022-10-15T08:14:52;97719.00;;;12.54;94.02
34297;BME280;20564;42.902;25.336;2022-10-15T08:17:19;97712.06;;;12.53;94.51
34297;BME280;20564;42.902;25.336;2022-10-15T08:19:46;97724.16;;;12.55;94.74
34297;BME280;20564;42.902;25.336;2022-10-15T08:22:13;97721.09;;;12.60;96.01
34297;BME280;20564;42.902;25.336;2022-10-15T08:24:40;97717.50;;;12.71;94.72
34297;BME280;20564;42.902;25.336;2022-10-15T08:27:08;97725.28;;;12.72;92.09
34297;BME280;20564;42.902;25.336;2022-10-15T08:29:36;97721.94;;;12.61;92.38
34297;BME280;20564;42.902;25.336;2022-10-15T08:32:03;97719.44;;;12.59;92.36
34297;BME280;20564;42.902;25.336;2022-10-15T08:34:30;97726.13;;;12.63;91.39
34297;BME280;20564;42.902;25.336;2022-10-15T08:36:57;97725.28;;;12.53;91.36
34297;BME280;20564;42.902;25.336;2022-10-15T08:39:24;97727.50;;;12.48;90.94
34297;BME280;20564;42.902;25.336;2022-10-15T08:41:54;97734.03;;;12.44;92.53
34297;BME280;20564;42.902;25.336;2022-10-15T08:44:29;97737.50;;;12.44;93.32
34297;BME280;20564;42.902;25.336;2022-10-15T08:47:15;97729.44;;;12.46;93.79
34297;BME280;20564;42.902;25.336;2022-10-15T08:50:02;97726.13;;;12.44;93.77
34297;BME280;20564;42.902;25.336;2022-10-15T08:52:43;97729.16;;;12.49;93.94
34297;BME280;20564;42.902;25.336;2022-10-15T08:55:14;97731.25;;;12.55;93.80
34297;BME280;20564;42.902;25.336;2022-10-15T08:58:00;97733.06;;;12.64;93.51
34297;BME280;20564;42.902;25.336;2022-10-15T09:00:49;97724.69;;;12.78;93.59
34297;BME280;20564;42.902;25.336;2022-10-15T09:03:26;97731.66;;;12.89;92.56
34297;BME280;20564;42.902;25.336;2022-10-15T09:06:18;97731.91;;;12.86;90.96
34297;BME280;20564;42.902;25.336;2022-10-15T09:14:53;97739.44;;;12.81;91.02
34297;BME280;20564;42.902;25.336;2022-10-15T09:17:24;97753.47;;;12.82;90.38
34297;BME280;20564;42.902;25.336;2022-10-15T09:19:54;97744.75;;;12.62;88.48
34297;BME280;20564;42.902;25.336;2022-10-15T09:22:25;97756.97;;;12.53;89.52
34297;BME280;20564;42.902;25.336;2022-10-15T09:24:53;97750.16;;;12.41;91.21
34297;BME280;20564;42.902;25.336;2022-10-15T09:27:32;97761.13;;;12.46;92.13
34297;BME280;20564;42.902;25.336;2022-10-15T09:35:16;97772.38;;;12.38;92.49
34297;BME280;20564;42.902;25.336;2022-10-15T09:41:00;97771.34;;;12.10;92.37
34297;BME280;20564;42.902;25.336;2022-10-15T09:43:38;97782.97;;;11.98;91.54
34297;BME280;20564;42.902;25.336;2022-10-15T09:46:08;97774.19;;;11.88;92.77
34297;BME280;20564;42.902;25.336;2022-10-15T09:48:41;97772.91;;;11.82;92.60
34297;BME280;20564;42.902;25.336;2022-10-15T09:51:34;97769.00;;;11.76;94.90
34297;BME280;20564;42.902;25.336;2022-10-15T09:54:04;97765.97;;;11.81;92.94
34297;BME280;20564;42.902;25.336;2022-10-15T09:56:44;97765.13;;;11.80;93.04
34297;BME280;20564;42.902;25.336;2022-10-15T09:59:17;97760.56;;;11.82;95.29
34297;BME280;20564;42.902;25.336;2022-10-15T10:02:03;97759.84;;;11.71;95.93
34297;BME280;20564;42.902;25.336;2022-10-15T10:04:33;97766.34;;;11.76;95.47
34297;BME280;20564;42.902;25.336;2022-10-15T10:07:05;97765.69;;;11.74;96.70
34297;BME280;20564;42.902;25.336;2022-10-15T10:09:53;97770.06;;;11.85;96.40
34297;BME280;20564;42.902;25.336;2022-10-15T10:12:24;97771.19;;;11.92;95.26
34297;BME280;20564;42.902;25.336;2022-10-15T10:17:59;97776.31;;;11.94;95.55
34297;BME280;20564;42.902;25.336;2022-10-15T10:20:28;97760.06;;;11.89;96.06
34297;BME280;20564;42.902;25.336;2022-10-15T10:22:59;97773.69;;;11.94;95.95
34297;BME280;20564;42.902;25.336;2022-10-15T10:25:39;97777.75;;;12.07;94.64
34297;BME280;20564;42.902;25.336;2022-10-15T10:30:37;97761.75;;;12.09;94.79
34297;BME280;20564;42.902;25.336;2022-10-15T10:33:05;97775.25;;;12.16;94.99
34297;BME280;20564;42.902;25.336;2022-10-15T10:35:53;97754.84;;;12.27;95.01
34297;BME280;20564;42.902;25.336;2022-10-15T10:38:23;97754.16;;;12.35;94.47
34297;BME280;20564;42.902;25.336;2022-10-15T10:40:56;97753.34;;;12.44;93.27
34297;BME280;20564;42.902;25.336;2022-10-15T10:43:28;97754.75;;;12.48;92.87
34297;BME280;20564;42.902;25.336;2022-10-15T10:48:49;97750.59;;;12.65;93.39
34297;BME280;20564;42.902;25.336;2022-10-15T10:51:23;97753.63;;;12.80;90.57
34297;BME280;20564;42.902;25.336;2022-10-15T10:53:58;97753.63;;;12.80;89.91
34297;BME280;20564;42.902;25.336;2022-10-15T10:56:35;97742.66;;;12.85;90.51
34297;BME280;20564;42.902;25.336;2022-10-15T10:59:17;97739.84;;;12.96;91.05
34297;BME280;20564;42.902;25.336;2022-10-15T11:01:46;97734.69;;;13.04;89.85
34297;BME280;20564;42.902;25.336;2022-10-15T11:04:28;97732.16;;;13.12;90.44
34297;BME280;20564;42.902;25.336;2022-10-15T11:07:04;97731.75;;;13.17;88.11
34297;BME280;20564;42.902;25.336;2022-10-15T11:09:54;97735.06;;;13.29;88.11
34297;BME280;20564;42.902;25.336;2022-10-15T11:27:02;97720.63;;;13.60;85.52
34297;BME280;20564;42.902;25.336;2022-10-15T11:29:55;97727.69;;;13.69;85.61
34297;BME280;20564;42.902;25.336;2022-10-15T11:38:24;97714.66;;;13.86;82.44
34297;BME280;20564;42.902;25.336;2022-10-15T11:41:36;97718.56;;;13.82;82.30
34297;BME280;20564;42.902;25.336;2022-10-15T11:55:10;97715.06;;;14.09;82.92
34297;BME280;20564;42.902;25.336;2022-10-15T11:57:35;97710.84;;;14.16;82.23
34297;BME280;20564;42.902;25.336;2022-10-15T12:00:18;97710.75;;;14.26;82.06
34297;BME280;20564;42.902;25.336;2022-10-15T12:02:53;97709.78;;;14.27;81.61
34297;BME280;20564;42.902;25.336;2022-10-15T12:05:34;97711.22;;;14.39;82.22
34297;BME280;20564;42.902;25.336;2022-10-15T12:08:04;97711.59;;;14.44;81.98
34297;BME280;20564;42.902;25.336;2022-10-15T12:19:23;97711.09;;;14.58;80.41
34297;BME280;20564;42.902;25.336;2022-10-15T12:27:23;97711.00;;;14.86;79.98
34297;BME280;20564;42.902;25.336;2022-10-15T12:30:11;97705.13;;;15.00;78.37
34297;BME280;20564;42.902;25.336;2022-10-15T12:32:41;97714.09;;;14.99;78.19
34297;BME280;20564;42.902;25.336;2022-10-15T12:37:44;97717.41;;;15.01;78.84
34297;BME280;20564;42.902;25.336;2022-10-15T12:43:14;97717.41;;;15.01;77.61
34297;BME280;20564;42.902;25.336;2022-10-15T12:46:09;97709.44;;;15.01;78.54
34297;BME280;20564;42.902;25.336;2022-10-15T12:48:45;97714.38;;;14.96;78.42
34297;BME280;20564;42.902;25.336;2022-10-15T12:53:43;97711.88;;;14.94;77.81
34297;BME280;20564;42.902;25.336;2022-10-15T12:58:54;97709.97;;;15.05;77.10
34297;BME280;20564;42.902;25.336;2022-10-15T13:11:42;97721.69;;;15.02;73.89
34297;BME280;20564;42.902;25.336;2022-10-15T13:16:52;97723.31;;;14.95;75.48
34297;BME280;20564;42.902;25.336;2022-10-15T13:19:24;97721.66;;;14.94;75.37
34297;BME280;20564;42.902;25.336;2022-10-15T13:22:00;97721.66;;;14.94;75.25
34297;BME280;20564;42.902;25.336;2022-10-15T13:24:38;97704.03;;;14.85;75.64
34297;BME280;20564;42.902;25.336;2022-10-15T13:27:23;97707.34;;;14.87;76.71
34297;BME280;20564;42.902;25.336;2022-10-15T13:30:00;97708.03;;;14.89;75.57
34297;BME280;20564;42.902;25.336;2022-10-15T13:32:30;97707.81;;;14.82;76.34
34297;BME280;20564;42.902;25.336;2022-10-15T13:34:59;97707.00;;;14.82;74.81
34297;BME280;20564;42.902;25.336;2022-10-15T13:37:31;97710.94;;;14.78;75.76
34297;BME280;20564;42.902;25.336;2022-10-15T13:40:01;97715.25;;;14.79;76.29
34297;BME280;20564;42.902;25.336;2022-10-15T13:42:33;97707.28;;;14.79;75.91
34297;BME280;20564;42.902;25.336;2022-10-15T13:45:03;97712.28;;;14.82;75.99
34297;BME280;20564;42.902;25.336;2022-10-15T13:50:22;97719.78;;;14.86;78.39
34297;BME280;20564;42.902;25.336;2022-10-15T13:55:31;97709.53;;;14.91;77.16
34297;BME280;20564;42.902;25.336;2022-10-15T13:58:05;97722.03;;;14.99;76.08
34297;BME280;20564;42.902;25.336;2022-10-15T14:00:41;97713.75;;;15.02;75.49
34297;BME280;20564;42.902;25.336;2022-10-15T14:03:16;97708.97;;;15.06;75.54
34297;BME280;20564;42.902;25.336;2022-10-15T14:05:44;97712.78;;;15.03;73.78
34297;BME280;20564;42.902;25.336;2022-10-15T14:08:35;97716.03;;;14.97;74.97
34297;BME280;20564;42.902;25.336;2022-10-15T14:11:02;97709.16;;;14.86;76.17
34297;BME280;20564;42.902;25.336;2022-10-15T14:13:29;97709.25;;;14.77;76.00
34297;BME280;20564;42.902;25.336;2022-10-15T14:18:42;97708.13;;;14.61;78.46
34297;BME280;20564;42.902;25.336;2022-10-15T14:21:18;97700.63;;;14.39;79.78
34297;BME280;20564;42.902;25.336;2022-10-15T14:23:46;97708.22;;;14.34;81.25
34297;BME280;20564;42.902;25.336;2022-10-15T14:26:22;97709.41;;;14.21;81.99
34297;BME280;20564;42.902;25.336;2022-10-15T14:28:50;97713.63;;;14.14;82.90
34297;BME280;20564;42.902;25.336;2022-10-15T14:31:37;97702.97;;;14.06;83.53
34297;BME280;20564;42.902;25.336;2022-10-15T14:34:26;97710.81;;;13.98;84.68
34297;BME280;20564;42.902;25.336;2022-10-15T14:36:52;97708.22;;;13.88;86.01
34297;BME280;20564;42.902;25.336;2022-10-15T14:39:30;97705.44;;;13.90;86.54
34297;BME280;20564;42.902;25.336;2022-10-15T14:42:26;97705.44;;;13.90;86.55
34297;BME280;20564;42.902;25.336;2022-10-15T14:44:53;97708.91;;;13.90;86.94
34297;BME280;20564;42.902;25.336;2022-10-15T14:47:24;97702.78;;;13.90;87.58
34297;BME280;20564;42.902;25.336;2022-10-15T14:49:54;97702.09;;;13.88;87.31
34297;BME280;20564;42.902;25.336;2022-10-15T14:52:21;97697.09;;;13.85;87.41
34297;BME280;20564;42.902;25.336;2022-10-15T14:57:41;97698.28;;;13.72;87.12
34297;BME280;20564;42.902;25.336;2022-10-15T15:00:19;97697.59;;;13.70;87.66
34297;BME280;20564;42.902;25.336;2022-10-15T15:02:48;97697.75;;;13.69;88.26
34297;BME280;20564;42.902;25.336;2022-10-15T15:05:17;97697.22;;;13.65;88.06
34297;BME280;20564;42.902;25.336;2022-10-15T15:07:45;97692.50;;;13.59;88.69
34297;BME280;20564;42.902;25.336;2022-10-15T15:10:13;97708.66;;;13.56;89.59
34297;BME280;20564;42.902;25.336;2022-10-15T15:12:45;97698.69;;;13.50;90.03